sensor_id;sensor_type;location;lat;lon;timestamp;P1;durP1;ratioP1;P2;durP2;ratioP2
65477;SDS011;53678;39.642;22.430;2024-01-06T00:00:27;60.38;;;28.92;;
65477;SDS011;53678;39.642;22.430;2024-01-06T00:02:53;67.25;;;34.72;;
65477;SDS011;53678;39.642;22.430;2024-01-06T00:05:19;68.93;;;32.75;;
65477;SDS011;53678;39.642;22.430;2024-01-06T00:07:45;70.45;;;36.83;;
65477;SDS011;53678;39.642;22.430;2024-01-06T00:10:11;72.28;;;38.53;;
65477;SDS011;53678;39.642;22.430;2024-01-06T00:12:37;77.30;;;38.20;;
65477;SDS011;53678;39.642;22.430;2024-01-06T00:15:03;81.10;;;37.92;;
65477;SDS011;53678;39.642;22.430;2024-01-06T00:17:30;62.35;;;33.85;;
65477;SDS011;53678;39.642;22.430;2024-01-06T00:19:57;58.90;;;32.35;;
65477;SDS011;53678;39.642;22.430;2024-01-06T00:22:25;63.10;;;35.35;;
65477;SDS011;53678;39.642;22.430;2024-01-06T00:24:51;69.80;;;34.83;;
65477;SDS011;53678;39.642;22.430;2024-01-06T00:27:17;59.80;;;34.00;;
65477;SDS011;53678;39.642;22.430;2024-01-06T00:29:45;65.15;;;34.88;;
65477;SDS011;53678;39.642;22.430;2024-01-06T00:32:13;59.83;;;34.53;;
65477;SDS011;53678;39.642;22.430;2024-01-06T00:34:40;57.20;;;31.10;;
65477;SDS011;53678;39.642;22.430;2024-01-06T00:37:06;60.15;;;34.67;;
65477;SDS011;53678;39.642;22.430;2024-01-06T00:39:32;68.65;;;36.13;;
65477;SDS011;53678;39.642;22.430;2024-01-06T00:41:58;62.63;;;33.42;;
65477;SDS011;53678;39.642;22.430;2024-01-06T00:44:24;78.75;;;35.83;;
65477;SDS011;53678;39.642;22.430;2024-01-06T00:46:50;70.43;;;35.08;;
65477;SDS011;53678;39.642;22.430;2024-01-06T00:49:16;62.15;;;32.63;;
65477;SDS011;53678;39.642;22.430;2024-01-06T00:51:42;52.97;;;28.95;;
65477;SDS011;53678;39.642;22.430;2024-01-06T00:54:08;61.25;;;30.60;;
65477;SDS011;53678;39.642;22.430;2024-01-06T00:56:34;54.67;;;29.10;;
65477;SDS011;53678;39.642;22.430;2024-01-06T00:59:01;54.85;;;28.40;;
65477;SDS011;53678;39.642;22.430;2024-01-06T01:01:27;51.85;;;26.80;;
65477;SDS011;53678;39.642;22.430;2024-01-06T01:03:53;53.25;;;28.55;;
65477;SDS011;53678;39.642;22.430;2024-01-06T01:06:21;56.70;;;28.38;;
65477;SDS011;53678;39.642;22.430;2024-01-06T01:08:47;49.92;;;26.23;;
65477;SDS011;53678;39.642;22.430;2024-01-06T01:11:14;50.30;;;26.80;;
65477;SDS011;53678;39.642;22.430;2024-01-06T01:13:39;48.97;;;25.08;;
65477;SDS011;53678;39.642;22.430;2024-01-06T01:16:08;45.80;;;26.40;;
65477;SDS011;53678;39.642;22.430;2024-01-06T01:18:34;46.30;;;26.65;;
65477;SDS011;53678;39.642;22.430;2024-01-06T01:21:00;43.35;;;23.92;;
65477;SDS011;53678;39.642;22.430;2024-01-06T01:23:25;43.65;;;26.38;;
65477;SDS011;53678;39.642;22.430;2024-01-06T01:25:53;46.83;;;25.63;;
65477;SDS011;53678;39.642;22.430;2024-01-06T01:28:20;50.78;;;26.33;;
65477;SDS011;53678;39.642;22.430;2024-01-06T01:30:46;52.78;;;28.10;;
65477;SDS011;53678;39.642;22.430;2024-01-06T01:33:12;50.63;;;28.85;;
65477;SDS011;53678;39.642;22.430;2024-01-06T01:35:38;57.67;;;30.80;;
65477;SDS011;53678;39.642;22.430;2024-01-06T01:38:04;51.60;;;28.50;;
65477;SDS011;53678;39.642;22.430;2024-01-06T01:40:32;48.10;;;27.85;;
65477;SDS011;53678;39.642;22.430;2024-01-06T01:42:58;47.13;;;27.60;;
65477;SDS011;53678;39.642;22.430;2024-01-06T01:45:24;49.42;;;27.80;;
65477;SDS011;53678;39.642;22.430;2024-01-06T01:47:50;56.10;;;30.73;;
65477;SDS011;53678;39.642;22.430;2024-01-06T01:50:26;52.63;;;29.33;;
65477;SDS011;53678;39.642;22.430;2024-01-06T01:52:53;50.05;;;30.35;;
65477;SDS011;53678;39.642;22.430;2024-01-06T01:55:20;53.75;;;31.17;;
65477;SDS011;53678;39.642;22.430;2024-01-06T01:57:46;51.53;;;29.67;;
65477;SDS011;53678;39.642;22.430;2024-01-06T02:00:12;55.70;;;31.00;;
65477;SDS011;53678;39.642;22.430;2024-01-06T02:02:39;63.50;;;34.65;;
65477;SDS011;53678;39.642;22.430;2024-01-06T02:05:05;61.72;;;34.28;;
65477;SDS011;53678;39.642;22.430;2024-01-06T02:07:31;65.18;;;36.97;;
65477;SDS011;53678;39.642;22.430;2024-01-06T02:09:57;61.10;;;35.22;;
65477;SDS011;53678;39.642;22.430;2024-01-06T02:12:23;59.53;;;31.45;;
65477;SDS011;53678;39.642;22.430;2024-01-06T02:14:49;57.55;;;31.92;;
65477;SDS011;53678;39.642;22.430;2024-01-06T02:17:15;57.40;;;32.50;;
65477;SDS011;53678;39.642;22.430;2024-01-06T02:19:41;62.88;;;33.40;;
65477;SDS011;53678;39.642;22.430;2024-01-06T02:22:07;54.22;;;31.58;;
65477;SDS011;53678;39.642;22.430;2024-01-06T02:24:33;64.63;;;32.88;;
65477;SDS011;53678;39.642;22.430;2024-01-06T02:26:58;50.67;;;30.60;;
65477;SDS011;53678;39.642;22.430;2024-01-06T02:29:25;53.47;;;31.40;;
65477;SDS011;53678;39.642;22.430;2024-01-06T02:31:51;56.15;;;31.40;;
65477;SDS011;53678;39.642;22.430;2024-01-06T02:34:18;58.72;;;32.65;;
65477;SDS011;53678;39.642;22.430;2024-01-06T02:36:44;61.53;;;32.70;;
65477;SDS011;53678;39.642;22.430;2024-01-06T02:39:10;56.65;;;33.72;;
65477;SDS011;53678;39.642;22.430;2024-01-06T02:41:37;54.50;;;30.55;;
65477;SDS011;53678;39.642;22.430;2024-01-06T02:44:04;53.17;;;30.02;;
65477;SDS011;53678;39.642;22.430;2024-01-06T02:46:30;63.47;;;34.58;;
65477;SDS011;53678;39.642;22.430;2024-01-06T02:48:56;67.80;;;35.78;;
65477;SDS011;53678;39.642;22.430;2024-01-06T02:51:22;57.55;;;32.90;;
65477;SDS011;53678;39.642;22.430;2024-01-06T02:53:49;54.28;;;33.05;;
65477;SDS011;53678;39.642;22.430;2024-01-06T02:56:15;51.05;;;31.80;;
65477;SDS011;53678;39.642;22.430;2024-01-06T02:58:41;53.53;;;31.70;;
65477;SDS011;53678;39.642;22.430;2024-01-06T03:01:07;57.22;;;29.77;;
65477;SDS011;53678;39.642;22.430;2024-01-06T03:03:32;52.70;;;29.98;;
65477;SDS011;53678;39.642;22.430;2024-01-06T03:05:59;49.17;;;28.75;;
65477;SDS011;53678;39.642;22.430;2024-01-06T03:08:25;49.33;;;28.35;;
65477;SDS011;53678;39.642;22.430;2024-01-06T03:10:52;49.65;;;29.65;;
65477;SDS011;53678;39.642;22.430;2024-01-06T03:13:18;57.30;;;32.47;;
65477;SDS011;53678;39.642;22.430;2024-01-06T03:15:43;63.10;;;31.73;;
65477;SDS011;53678;39.642;22.430;2024-01-06T03:18:09;53.22;;;30.42;;
65477;SDS011;53678;39.642;22.430;2024-01-06T03:20:36;57.72;;;33.85;;
65477;SDS011;53678;39.642;22.430;2024-01-06T03:23:02;58.50;;;34.08;;
65477;SDS011;53678;39.642;22.430;2024-01-06T03:25:28;62.67;;;36.42;;
65477;SDS011;53678;39.642;22.430;2024-01-06T03:27:54;66.45;;;38.95;;
65477;SDS011;53678;39.642;22.430;2024-01-06T03:30:23;65.05;;;35.92;;
65477;SDS011;53678;39.642;22.430;2024-01-06T03:32:49;59.65;;;34.85;;
65477;SDS011;53678;39.642;22.430;2024-01-06T03:35:15;65.88;;;34.83;;
65477;SDS011;53678;39.642;22.430;2024-01-06T03:37:44;58.53;;;34.47;;
65477;SDS011;53678;39.642;22.430;2024-01-06T03:40:10;54.95;;;31.65;;
65477;SDS011;53678;39.642;22.430;2024-01-06T03:42:38;53.75;;;31.17;;
65477;SDS011;53678;39.642;22.430;2024-01-06T03:45:04;57.60;;;31.27;;
65477;SDS011;53678;39.642;22.430;2024-01-06T03:47:31;61.95;;;32.55;;
65477;SDS011;53678;39.642;22.430;2024-01-06T03:49:57;67.20;;;34.45;;
65477;SDS011;53678;39.642;22.430;2024-01-06T03:52:23;54.25;;;31.42;;
65477;SDS011;53678;39.642;22.430;2024-01-06T03:54:49;50.13;;;30.08;;
65477;SDS011;53678;39.642;22.430;2024-01-06T03:57:15;50.97;;;30.00;;
65477;SDS011;53678;39.642;22.430;2024-01-06T03:59:41;45.10;;;28.70;;
65477;SDS011;53678;39.642;22.430;2024-01-06T04:02:08;54.35;;;29.42;;
65477;SDS011;53678;39.642;22.430;2024-01-06T04:04:33;48.45;;;27.38;;
65477;SDS011;53678;39.642;22.430;2024-01-06T04:06:59;44.17;;;25.83;;
65477;SDS011;53678;39.642;22.430;2024-01-06T04:09:26;48.45;;;25.85;;
65477;SDS011;53678;39.642;22.430;2024-01-06T04:11:52;45.90;;;28.02;;
65477;SDS011;53678;39.642;22.430;2024-01-06T04:14:19;47.58;;;26.70;;
65477;SDS011;53678;39.642;22.430;2024-01-06T04:16:45;41.10;;;25.10;;
65477;SDS011;53678;39.642;22.430;2024-01-06T04:19:11;43.08;;;25.35;;
65477;SDS011;53678;39.642;22.430;2024-01-06T04:21:39;42.63;;;25.65;;
65477;SDS011;53678;39.642;22.430;2024-01-06T04:24:08;43.55;;;26.23;;
65477;SDS011;53678;39.642;22.430;2024-01-06T04:26:35;49.28;;;25.85;;
65477;SDS011;53678;39.642;22.430;2024-01-06T04:29:01;47.35;;;24.52;;
65477;SDS011;53678;39.642;22.430;2024-01-06T04:31:27;42.17;;;24.75;;
65477;SDS011;53678;39.642;22.430;2024-01-06T04:33:53;37.60;;;23.17;;
65477;SDS011;53678;39.642;22.430;2024-01-06T04:36:18;40.03;;;23.38;;
65477;SDS011;53678;39.642;22.430;2024-01-06T04:38:45;42.13;;;24.13;;
65477;SDS011;53678;39.642;22.430;2024-01-06T04:41:11;37.10;;;22.40;;
65477;SDS011;53678;39.642;22.430;2024-01-06T04:43:37;36.55;;;22.98;;
65477;SDS011;53678;39.642;22.430;2024-01-06T04:46:03;33.10;;;20.92;;
65477;SDS011;53678;39.642;22.430;2024-01-06T04:48:28;36.40;;;20.70;;
65477;SDS011;53678;39.642;22.430;2024-01-06T04:50:54;32.33;;;19.52;;
65477;SDS011;53678;39.642;22.430;2024-01-06T04:53:20;37.83;;;20.48;;
65477;SDS011;53678;39.642;22.430;2024-01-06T04:55:46;40.80;;;20.30;;
65477;SDS011;53678;39.642;22.430;2024-01-06T04:58:12;37.78;;;22.02;;
65477;SDS011;53678;39.642;22.430;2024-01-06T05:00:37;42.28;;;22.63;;
65477;SDS011;53678;39.642;22.430;2024-01-06T05:03:03;35.58;;;21.92;;
65477;SDS011;53678;39.642;22.430;2024-01-06T05:05:29;34.15;;;20.55;;
65477;SDS011;53678;39.642;22.430;2024-01-06T05:07:55;39.70;;;21.52;;
65477;SDS011;53678;39.642;22.430;2024-01-06T05:10:21;36.60;;;21.08;;
65477;SDS011;53678;39.642;22.430;2024-01-06T05:12:47;46.75;;;26.15;;
65477;SDS011;53678;39.642;22.430;2024-01-06T05:15:13;46.25;;;25.77;;
65477;SDS011;53678;39.642;22.430;2024-01-06T05:17:39;40.45;;;22.83;;
65477;SDS011;53678;39.642;22.430;2024-01-06T05:20:05;35.13;;;20.35;;
65477;SDS011;53678;39.642;22.430;2024-01-06T05:22:32;39.85;;;19.00;;
65477;SDS011;53678;39.642;22.430;2024-01-06T05:24:57;24.67;;;14.15;;
65477;SDS011;53678;39.642;22.430;2024-01-06T05:27:23;29.00;;;15.98;;
65477;SDS011;53678;39.642;22.430;2024-01-06T05:29:49;24.85;;;15.30;;
65477;SDS011;53678;39.642;22.430;2024-01-06T05:32:17;25.33;;;15.75;;
65477;SDS011;53678;39.642;22.430;2024-01-06T05:34:43;33.58;;;16.50;;
65477;SDS011;53678;39.642;22.430;2024-01-06T05:37:09;30.08;;;17.35;;
65477;SDS011;53678;39.642;22.430;2024-01-06T05:39:40;32.25;;;18.13;;
65477;SDS011;53678;39.642;22.430;2024-01-06T05:42:06;29.67;;;18.25;;
65477;SDS011;53678;39.642;22.430;2024-01-06T05:44:35;32.97;;;18.80;;
65477;SDS011;53678;39.642;22.430;2024-01-06T05:47:02;38.45;;;19.85;;
65477;SDS011;53678;39.642;22.430;2024-01-06T05:49:28;33.63;;;19.33;;
65477;SDS011;53678;39.642;22.430;2024-01-06T05:51:54;32.67;;;18.20;;
65477;SDS011;53678;39.642;22.430;2024-01-06T05:54:21;39.42;;;22.77;;
65477;SDS011;53678;39.642;22.430;2024-01-06T05:56:46;36.40;;;21.38;;
65477;SDS011;53678;39.642;22.430;2024-01-06T05:59:12;39.65;;;20.92;;
65477;SDS011;53678;39.642;22.430;2024-01-06T06:01:38;32.42;;;19.88;;
65477;SDS011;53678;39.642;22.430;2024-01-06T06:04:04;34.58;;;20.20;;
65477;SDS011;53678;39.642;22.430;2024-01-06T06:06:30;32.30;;;18.30;;
65477;SDS011;53678;39.642;22.430;2024-01-06T06:08:58;33.15;;;18.20;;
65477;SDS011;53678;39.642;22.430;2024-01-06T06:11:24;35.38;;;19.45;;
65477;SDS011;53678;39.642;22.430;2024-01-06T06:13:50;33.58;;;18.73;;
65477;SDS011;53678;39.642;22.430;2024-01-06T06:16:16;34.97;;;19.70;;
65477;SDS011;53678;39.642;22.430;2024-01-06T06:18:42;39.60;;;19.70;;
65477;SDS011;53678;39.642;22.430;2024-01-06T06:21:09;37.13;;;21.30;;
65477;SDS011;53678;39.642;22.430;2024-01-06T06:23:35;39.95;;;21.42;;
65477;SDS011;53678;39.642;22.430;2024-01-06T06:26:07;40.25;;;23.35;;
65477;SDS011;53678;39.642;22.430;2024-01-06T06:28:34;45.33;;;25.88;;
65477;SDS011;53678;39.642;22.430;2024-01-06T06:31:01;48.65;;;24.95;;
65477;SDS011;53678;39.642;22.430;2024-01-06T06:33:27;55.53;;;34.35;;
65477;SDS011;53678;39.642;22.430;2024-01-06T06:35:53;50.58;;;26.63;;
65477;SDS011;53678;39.642;22.430;2024-01-06T06:38:18;53.45;;;27.20;;
65477;SDS011;53678;39.642;22.430;2024-01-06T06:40:45;47.42;;;25.45;;
65477;SDS011;53678;39.642;22.430;2024-01-06T06:43:11;50.55;;;26.65;;
65477;SDS011;53678;39.642;22.430;2024-01-06T06:45:36;44.30;;;25.15;;
65477;SDS011;53678;39.642;22.430;2024-01-06T06:48:03;42.53;;;24.05;;
65477;SDS011;53678;39.642;22.430;2024-01-06T06:50:29;46.42;;;23.25;;
65477;SDS011;53678;39.642;22.430;2024-01-06T06:52:56;36.83;;;20.92;;
65477;SDS011;53678;39.642;22.430;2024-01-06T06:55:22;41.70;;;21.35;;
65477;SDS011;53678;39.642;22.430;2024-01-06T06:57:48;36.47;;;20.10;;
65477;SDS011;53678;39.642;22.430;2024-01-06T07:00:14;39.53;;;21.35;;
65477;SDS011;53678;39.642;22.430;2024-01-06T07:02:42;40.88;;;23.30;;
65477;SDS011;53678;39.642;22.430;2024-01-06T07:05:11;41.60;;;24.52;;
65477;SDS011;53678;39.642;22.430;2024-01-06T07:07:37;43.13;;;23.98;;
65477;SDS011;53678;39.642;22.430;2024-01-06T07:10:03;42.08;;;23.33;;
65477;SDS011;53678;39.642;22.430;2024-01-06T07:12:31;38.17;;;23.48;;
65477;SDS011;53678;39.642;22.430;2024-01-06T07:14:58;41.72;;;23.55;;
65477;SDS011;53678;39.642;22.430;2024-01-06T07:17:26;38.00;;;23.35;;
65477;SDS011;53678;39.642;22.430;2024-01-06T07:19:54;43.92;;;26.05;;
65477;SDS011;53678;39.642;22.430;2024-01-06T07:22:20;41.88;;;25.05;;
65477;SDS011;53678;39.642;22.430;2024-01-06T07:24:46;39.58;;;22.83;;
65477;SDS011;53678;39.642;22.430;2024-01-06T07:27:13;45.97;;;23.55;;
65477;SDS011;53678;39.642;22.430;2024-01-06T07:29:41;41.15;;;23.92;;
65477;SDS011;53678;39.642;22.430;2024-01-06T07:32:08;37.30;;;22.70;;
65477;SDS011;53678;39.642;22.430;2024-01-06T07:34:35;36.05;;;20.58;;
65477;SDS011;53678;39.642;22.430;2024-01-06T07:37:01;33.05;;;21.02;;
65477;SDS011;53678;39.642;22.430;2024-01-06T07:39:27;37.40;;;19.90;;
65477;SDS011;53678;39.642;22.430;2024-01-06T07:41:52;39.58;;;20.73;;
65477;SDS011;53678;39.642;22.430;2024-01-06T07:44:19;30.92;;;18.95;;
65477;SDS011;53678;39.642;22.430;2024-01-06T07:46:50;33.25;;;19.70;;
65477;SDS011;53678;39.642;22.430;2024-01-06T07:49:16;38.13;;;20.27;;
65477;SDS011;53678;39.642;22.430;2024-01-06T07:51:44;32.22;;;19.52;;
65477;SDS011;53678;39.642;22.430;2024-01-06T07:54:10;38.10;;;20.30;;
65477;SDS011;53678;39.642;22.430;2024-01-06T07:56:37;34.10;;;18.67;;
65477;SDS011;53678;39.642;22.430;2024-01-06T07:59:03;37.05;;;20.40;;
65477;SDS011;53678;39.642;22.430;2024-01-06T08:01:29;35.60;;;18.77;;
65477;SDS011;53678;39.642;22.430;2024-01-06T08:03:55;32.03;;;18.85;;
65477;SDS011;53678;39.642;22.430;2024-01-06T08:06:21;33.08;;;18.90;;
65477;SDS011;53678;39.642;22.430;2024-01-06T08:08:47;29.15;;;18.05;;
65477;SDS011;53678;39.642;22.430;2024-01-06T08:11:12;29.20;;;17.35;;
65477;SDS011;53678;39.642;22.430;2024-01-06T08:13:38;30.08;;;18.88;;
65477;SDS011;53678;39.642;22.430;2024-01-06T08:16:05;31.80;;;18.67;;
65477;SDS011;53678;39.642;22.430;2024-01-06T08:18:31;29.30;;;18.98;;
65477;SDS011;53678;39.642;22.430;2024-01-06T08:20:57;38.28;;;20.38;;
65477;SDS011;53678;39.642;22.430;2024-01-06T08:23:22;32.25;;;18.10;;
65477;SDS011;53678;39.642;22.430;2024-01-06T08:25:48;40.15;;;20.40;;
65477;SDS011;53678;39.642;22.430;2024-01-06T08:28:21;32.08;;;17.85;;
65477;SDS011;53678;39.642;22.430;2024-01-06T08:30:49;35.50;;;18.67;;
65477;SDS011;53678;39.642;22.430;2024-01-06T08:33:16;30.15;;;17.23;;
65477;SDS011;53678;39.642;22.430;2024-01-06T08:35:43;28.80;;;17.48;;
65477;SDS011;53678;39.642;22.430;2024-01-06T08:38:09;35.35;;;21.30;;
65477;SDS011;53678;39.642;22.430;2024-01-06T08:40:35;30.40;;;18.45;;
65477;SDS011;53678;39.642;22.430;2024-01-06T08:43:03;37.70;;;21.90;;
65477;SDS011;53678;39.642;22.430;2024-01-06T08:45:29;37.10;;;22.50;;
65477;SDS011;53678;39.642;22.430;2024-01-06T08:47:56;38.50;;;21.52;;
65477;SDS011;53678;39.642;22.430;2024-01-06T08:50:22;40.50;;;25.30;;
65477;SDS011;53678;39.642;22.430;2024-01-06T08:52:47;36.28;;;21.83;;
65477;SDS011;53678;39.642;22.430;2024-01-06T08:55:13;40.17;;;23.25;;
65477;SDS011;53678;39.642;22.430;2024-01-06T08:57:39;38.60;;;21.38;;
65477;SDS011;53678;39.642;22.430;2024-01-06T09:00:06;36.30;;;21.05;;
65477;SDS011;53678;39.642;22.430;2024-01-06T09:02:35;35.35;;;20.58;;
65477;SDS011;53678;39.642;22.430;2024-01-06T09:05:00;35.00;;;19.20;;
65477;SDS011;53678;39.642;22.430;2024-01-06T09:07:26;31.00;;;18.92;;
65477;SDS011;53678;39.642;22.430;2024-01-06T09:09:51;34.42;;;20.23;;
65477;SDS011;53678;39.642;22.430;2024-01-06T09:12:17;33.35;;;17.55;;
65477;SDS011;53678;39.642;22.430;2024-01-06T09:14:43;29.10;;;18.95;;
65477;SDS011;53678;39.642;22.430;2024-01-06T09:17:10;26.83;;;16.85;;
65477;SDS011;53678;39.642;22.430;2024-01-06T09:19:38;25.98;;;16.73;;
65477;SDS011;53678;39.642;22.430;2024-01-06T09:22:04;26.90;;;17.90;;
65477;SDS011;53678;39.642;22.430;2024-01-06T09:24:30;26.40;;;17.95;;
65477;SDS011;53678;39.642;22.430;2024-01-06T09:26:58;33.45;;;20.20;;
65477;SDS011;53678;39.642;22.430;2024-01-06T09:29:24;32.22;;;19.52;;
65477;SDS011;53678;39.642;22.430;2024-01-06T09:31:50;40.10;;;20.20;;
65477;SDS011;53678;39.642;22.430;2024-01-06T09:34:17;28.95;;;18.52;;
65477;SDS011;53678;39.642;22.430;2024-01-06T09:36:43;31.60;;;18.23;;
65477;SDS011;53678;39.642;22.430;2024-01-06T09:39:08;36.60;;;20.45;;
65477;SDS011;53678;39.642;22.430;2024-01-06T09:41:38;38.60;;;22.45;;
65477;SDS011;53678;39.642;22.430;2024-01-06T09:44:04;45.45;;;21.60;;
65477;SDS011;53678;39.642;22.430;2024-01-06T09:46:34;34.00;;;21.15;;
65477;SDS011;53678;39.642;22.430;2024-01-06T09:49:03;30.98;;;21.05;;
65477;SDS011;53678;39.642;22.430;2024-01-06T09:51:35;30.92;;;20.27;;
65477;SDS011;53678;39.642;22.430;2024-01-06T09:54:04;34.53;;;22.77;;
65477;SDS011;53678;39.642;22.430;2024-01-06T09:56:33;32.90;;;18.60;;
65477;SDS011;53678;39.642;22.430;2024-01-06T09:58:59;28.52;;;17.67;;
65477;SDS011;53678;39.642;22.430;2024-01-06T10:01:26;24.90;;;16.73;;
65477;SDS011;53678;39.642;22.430;2024-01-06T10:03:52;25.42;;;16.95;;
65477;SDS011;53678;39.642;22.430;2024-01-06T10:06:18;25.42;;;14.93;;
65477;SDS011;53678;39.642;22.430;2024-01-06T10:08:48;23.98;;;15.50;;
65477;SDS011;53678;39.642;22.430;2024-01-06T10:11:16;25.48;;;16.27;;
65477;SDS011;53678;39.642;22.430;2024-01-06T10:13:42;25.98;;;15.90;;
65477;SDS011;53678;39.642;22.430;2024-01-06T10:16:08;27.25;;;16.13;;
65477;SDS011;53678;39.642;22.430;2024-01-06T10:18:34;24.73;;;15.02;;
65477;SDS011;53678;39.642;22.430;2024-01-06T10:21:04;30.63;;;15.02;;
65477;SDS011;53678;39.642;22.430;2024-01-06T10:23:33;24.83;;;14.85;;
65477;SDS011;53678;39.642;22.430;2024-01-06T10:26:02;25.15;;;14.75;;
65477;SDS011;53678;39.642;22.430;2024-01-06T10:28:28;26.98;;;15.85;;
65477;SDS011;53678;39.642;22.430;2024-01-06T10:30:55;29.33;;;17.65;;
65477;SDS011;53678;39.642;22.430;2024-01-06T10:33:22;27.83;;;15.85;;
65477;SDS011;53678;39.642;22.430;2024-01-06T10:35:50;19.38;;;12.80;;
65477;SDS011;53678;39.642;22.430;2024-01-06T10:38:18;27.40;;;15.95;;
65477;SDS011;53678;39.642;22.430;2024-01-06T10:41:00;21.77;;;14.52;;
65477;SDS011;53678;39.642;22.430;2024-01-06T10:43:32;19.20;;;12.90;;
65477;SDS011;53678;39.642;22.430;2024-01-06T10:46:02;17.48;;;11.35;;
65477;SDS011;53678;39.642;22.430;2024-01-06T10:48:33;19.27;;;12.00;;
65477;SDS011;53678;39.642;22.430;2024-01-06T10:51:00;21.33;;;13.18;;
65477;SDS011;53678;39.642;22.430;2024-01-06T10:53:27;17.02;;;10.75;;
65477;SDS011;53678;39.642;22.430;2024-01-06T10:55:54;20.75;;;10.98;;
65477;SDS011;53678;39.642;22.430;2024-01-06T10:58:24;16.67;;;11.40;;
65477;SDS011;53678;39.642;22.430;2024-01-06T11:00:55;18.23;;;10.50;;
65477;SDS011;53678;39.642;22.430;2024-01-06T11:30:34;23.05;;;13.75;;
65477;SDS011;53678;39.642;22.430;2024-01-06T11:33:25;28.02;;;16.52;;
65477;SDS011;53678;39.642;22.430;2024-01-06T11:40:49;23.85;;;14.02;;
65477;SDS011;53678;39.642;22.430;2024-01-06T11:43:19;45.88;;;23.42;;
65477;SDS011;53678;39.642;22.430;2024-01-06T11:46:07;32.90;;;16.73;;
65477;SDS011;53678;39.642;22.430;2024-01-06T11:48:34;25.63;;;14.00;;
65477;SDS011;53678;39.642;22.430;2024-01-06T11:51:00;27.60;;;16.83;;
65477;SDS011;53678;39.642;22.430;2024-01-06T11:53:29;30.08;;;18.42;;
65477;SDS011;53678;39.642;22.430;2024-01-06T11:56:00;23.00;;;13.60;;
65477;SDS011;53678;39.642;22.430;2024-01-06T11:58:27;22.55;;;13.30;;
65477;SDS011;53678;39.642;22.430;2024-01-06T12:00:55;23.60;;;14.10;;
65477;SDS011;53678;39.642;22.430;2024-01-06T12:03:24;27.42;;;15.20;;
65477;SDS011;53678;39.642;22.430;2024-01-06T12:06:01;26.13;;;15.25;;
65477;SDS011;53678;39.642;22.430;2024-01-06T12:08:29;16.55;;;10.30;;
65477;SDS011;53678;39.642;22.430;2024-01-06T12:11:04;18.80;;;11.95;;
65477;SDS011;53678;39.642;22.430;2024-01-06T12:13:31;18.63;;;12.40;;
65477;SDS011;53678;39.642;22.430;2024-01-06T12:15:57;14.77;;;8.90;;
65477;SDS011;53678;39.642;22.430;2024-01-06T12:18:23;10.48;;;6.97;;
65477;SDS011;53678;39.642;22.430;2024-01-06T12:20:55;13.68;;;7.28;;
65477;SDS011;53678;39.642;22.430;2024-01-06T12:23:27;10.85;;;6.95;;
65477;SDS011;53678;39.642;22.430;2024-01-06T12:25:54;12.32;;;6.80;;
65477;SDS011;53678;39.642;22.430;2024-01-06T12:28:21;11.93;;;6.70;;
65477;SDS011;53678;39.642;22.430;2024-01-06T12:30:53;11.80;;;6.97;;
65477;SDS011;53678;39.642;22.430;2024-01-06T12:33:26;14.15;;;7.07;;
65477;SDS011;53678;39.642;22.430;2024-01-06T12:36:05;10.35;;;6.82;;
65477;SDS011;53678;39.642;22.430;2024-01-06T12:38:46;32.22;;;16.98;;
65477;SDS011;53678;39.642;22.430;2024-01-06T12:41:13;29.85;;;18.40;;
65477;SDS011;53678;39.642;22.430;2024-01-06T12:43:41;12.75;;;7.50;;
65477;SDS011;53678;39.642;22.430;2024-01-06T12:46:40;17.38;;;9.90;;
65477;SDS011;53678;39.642;22.430;2024-01-06T12:49:07;10.63;;;7.07;;
65477;SDS011;53678;39.642;22.430;2024-01-06T12:51:33;40.47;;;22.85;;
65477;SDS011;53678;39.642;22.430;2024-01-06T12:54:00;14.98;;;8.23;;
65477;SDS011;53678;39.642;22.430;2024-01-06T12:56:34;13.00;;;6.80;;
65477;SDS011;53678;39.642;22.430;2024-01-06T12:59:03;11.95;;;6.68;;
65477;SDS011;53678;39.642;22.430;2024-01-06T13:01:29;25.25;;;14.30;;
65477;SDS011;53678;39.642;22.430;2024-01-06T13:03:55;15.80;;;9.32;;
65477;SDS011;53678;39.642;22.430;2024-01-06T13:06:21;24.58;;;14.77;;
65477;SDS011;53678;39.642;22.430;2024-01-06T13:08:46;14.40;;;8.10;;
65477;SDS011;53678;39.642;22.430;2024-01-06T13:11:12;12.25;;;6.00;;
65477;SDS011;53678;39.642;22.430;2024-01-06T13:13:38;13.40;;;6.72;;
65477;SDS011;53678;39.642;22.430;2024-01-06T13:16:07;14.77;;;6.32;;
65477;SDS011;53678;39.642;22.430;2024-01-06T13:18:32;9.13;;;6.30;;
65477;SDS011;53678;39.642;22.430;2024-01-06T13:21:07;9.68;;;5.47;;
65477;SDS011;53678;39.642;22.430;2024-01-06T13:23:36;9.65;;;5.80;;
65477;SDS011;53678;39.642;22.430;2024-01-06T13:26:01;8.20;;;4.95;;
65477;SDS011;53678;39.642;22.430;2024-01-06T13:28:27;13.18;;;7.03;;
65477;SDS011;53678;39.642;22.430;2024-01-06T13:30:55;13.90;;;6.95;;
65477;SDS011;53678;39.642;22.430;2024-01-06T13:33:20;18.52;;;9.98;;
65477;SDS011;53678;39.642;22.430;2024-01-06T13:35:46;17.05;;;7.68;;
65477;SDS011;53678;39.642;22.430;2024-01-06T13:38:12;16.83;;;9.02;;
65477;SDS011;53678;39.642;22.430;2024-01-06T13:40:39;12.02;;;6.00;;
65477;SDS011;53678;39.642;22.430;2024-01-06T13:43:06;18.10;;;9.05;;
65477;SDS011;53678;39.642;22.430;2024-01-06T13:45:48;13.32;;;7.32;;
65477;SDS011;53678;39.642;22.430;2024-01-06T13:49:21;9.95;;;5.97;;
65477;SDS011;53678;39.642;22.430;2024-01-06T14:08:50;12.10;;;5.97;;
65477;SDS011;53678;39.642;22.430;2024-01-06T14:11:18;18.50;;;9.85;;
65477;SDS011;53678;39.642;22.430;2024-01-06T14:39:41;7.97;;;4.45;;
65477;SDS011;53678;39.642;22.430;2024-01-06T14:42:41;5.88;;;3.22;;
65477;SDS011;53678;39.642;22.430;2024-01-06T14:45:12;7.88;;;3.65;;
65477;SDS011;53678;39.642;22.430;2024-01-06T14:52:14;7.10;;;3.85;;
65477;SDS011;53678;39.642;22.430;2024-01-06T14:58:31;7.82;;;4.05;;
65477;SDS011;53678;39.642;22.430;2024-01-06T15:01:03;8.88;;;4.85;;
65477;SDS011;53678;39.642;22.430;2024-01-06T15:03:41;8.55;;;4.38;;
65477;SDS011;53678;39.642;22.430;2024-01-06T15:06:32;14.27;;;5.93;;
65477;SDS011;53678;39.642;22.430;2024-01-06T15:09:13;13.30;;;6.10;;
65477;SDS011;53678;39.642;22.430;2024-01-06T15:11:45;14.45;;;7.72;;
65477;SDS011;53678;39.642;22.430;2024-01-06T15:19:24;9.50;;;4.70;;
65477;SDS011;53678;39.642;22.430;2024-01-06T15:21:58;7.13;;;4.30;;
65477;SDS011;53678;39.642;22.430;2024-01-06T15:24:28;14.52;;;5.93;;
65477;SDS011;53678;39.642;22.430;2024-01-06T15:26:57;10.35;;;5.95;;
65477;SDS011;53678;39.642;22.430;2024-01-06T15:29:23;11.52;;;6.03;;
65477;SDS011;53678;39.642;22.430;2024-01-06T15:31:49;10.18;;;4.72;;
65477;SDS011;53678;39.642;22.430;2024-01-06T15:34:17;8.25;;;4.47;;
65477;SDS011;53678;39.642;22.430;2024-01-06T15:36:42;11.93;;;6.22;;
65477;SDS011;53678;39.642;22.430;2024-01-06T15:39:08;12.65;;;6.15;;
65477;SDS011;53678;39.642;22.430;2024-01-06T15:41:34;7.95;;;4.80;;